createdAt,value
2016-09-30T03:01:42.017Z,56.09
2016-09-30T03:02:07.574Z,55.89
2016-09-30T03:02:33.451Z,55.89
2016-09-30T03:02:59.432Z,55.89
2016-09-30T03:03:25.166Z,55.7
2016-09-30T03:03:50.838Z,55.79
2016-09-30T03:04:16.837Z,55.89
2016-09-30T03:04:42.543Z,55.79
2016-09-30T03:05:08.397Z,55.89
2016-09-30T03:05:34.268Z,56.09
2016-09-30T03:05:59.979Z,55.79
2016-09-30T03:06:25.780Z,56.09
2016-09-30T03:06:51.986Z,55.89
2016-09-30T03:07:17.718Z,56.09
2016-09-30T03:07:43.266Z,55.99
2016-09-30T03:08:08.841Z,55.99
2016-09-30T03:08:34.474Z,56.09
2016-09-30T03:09:00.113Z,55.89
2016-09-30T03:09:25.723Z,55.99
2016-09-30T03:09:51.307Z,56.09
2016-09-30T03:10:16.902Z,55.89
2016-09-30T03:10:42.552Z,56.09
2016-09-30T03:11:08.126Z,55.89
2016-09-30T03:11:33.732Z,55.79
2016-09-30T03:11:59.364Z,55.99
2016-09-30T03:12:24.925Z,55.79
2016-09-30T03:12:50.587Z,55.79
2016-09-30T03:13:16.184Z,56.09
2016-09-30T03:13:41.953Z,55.7
2016-09-30T03:14:07.629Z,55.7
2016-09-30T03:14:33.292Z,55.6
2016-09-30T03:14:58.809Z,55.7
2016-09-30T03:15:24.484Z,55.89
2016-09-30T03:15:50.032Z,55.7
2016-09-30T03:16:15.599Z,55.99
2016-09-30T03:16:41.173Z,55.7
2016-09-30T03:17:06.801Z,56.18
2016-09-30T03:17:32.467Z,55.51
2016-09-30T03:17:58.042Z,56.09
2016-09-30T03:18:24.158Z,55.89
2016-09-30T03:18:49.744Z,55.89
2016-09-30T03:19:15.372Z,55.99
2016-09-30T03:19:40.913Z,55.89
2016-09-30T03:20:06.552Z,56.09
2016-09-30T03:20:32.155Z,55.99
2016-09-30T03:20:57.781Z,56.09
2016-09-30T03:21:23.374Z,56.09
2016-09-30T03:21:48.919Z,55.99
2016-09-30T03:22:14.486Z,55.99
2016-09-30T03:23:07.508Z,55.89
2016-09-30T03:23:33.084Z,55.89
2016-09-30T03:23:58.733Z,55.51
2016-09-30T03:24:24.296Z,55.7
2016-09-30T03:24:50.058Z,55.6
2016-09-30T03:25:16.702Z,55.99
2016-09-30T03:25:42.280Z,55.89
2016-09-30T03:26:07.897Z,55.99
2016-09-30T03:26:33.495Z,55.99
2016-09-30T03:26:59.119Z,55.99
2016-09-30T03:27:24.680Z,55.89
2016-09-30T03:27:50.251Z,55.89
2016-09-30T03:28:15.898Z,56.37
2016-09-30T03:28:41.543Z,56.09
2016-09-30T03:29:07.041Z,55.99
2016-09-30T03:29:32.663Z,55.99
2016-09-30T03:29:58.234Z,56.09
2016-09-30T03:30:23.790Z,55.89
2016-09-30T03:30:49.327Z,55.89
2016-09-30T03:31:14.988Z,55.89
2016-09-30T03:31:40.639Z,56.09
2016-09-30T03:32:06.219Z,55.99
2016-09-30T03:32:31.923Z,55.89
2016-09-30T03:32:57.479Z,55.89
2016-09-30T03:33:23.109Z,56.09
2016-09-30T03:33:48.771Z,56.09
2016-09-30T03:34:14.336Z,55.99
2016-09-30T03:34:40.065Z,56.09
2016-09-30T03:35:05.679Z,56.47
2016-09-30T03:35:31.233Z,56.18
2016-09-30T03:38:21.522Z,56.18
2016-09-30T03:38:47.118Z,55.99
2016-09-30T03:39:13.365Z,55.99
2016-09-30T03:39:38.998Z,55.79
2016-09-30T03:40:04.711Z,56.09
2016-09-30T03:40:30.189Z,55.99
2016-09-30T03:40:55.827Z,56.37
2016-09-30T03:41:21.389Z,56.09
2016-09-30T03:41:47.104Z,55.99
2016-09-30T03:42:12.758Z,56.18
2016-09-30T03:42:38.239Z,55.99
2016-09-30T03:43:03.798Z,56.09
2016-09-30T03:43:29.361Z,55.89
2016-09-30T03:43:54.947Z,55.89
2016-09-30T03:44:20.508Z,55.99
2016-09-30T03:44:46.133Z,55.99
2016-09-30T03:45:11.693Z,56.09
2016-09-30T03:45:37.260Z,55.99
2016-09-30T03:46:02.810Z,56.18
2016-09-30T03:46:28.382Z,56.09
2016-09-30T03:46:53.990Z,55.89
2016-09-30T03:47:19.547Z,55.99
2016-09-30T03:47:45.267Z,56.27
2016-09-30T03:48:10.876Z,55.99
2016-09-30T03:48:36.459Z,55.79
2016-09-30T03:49:02.024Z,55.89
2016-09-30T03:49:27.606Z,55.99
2016-09-30T03:49:53.272Z,55.89
2016-09-30T03:50:18.877Z,55.89
2016-09-30T03:50:44.458Z,55.99
2016-09-30T03:51:10.098Z,56.09
2016-09-30T03:51:35.681Z,56.09
2016-09-30T03:52:01.241Z,55.99
2016-09-30T03:52:26.919Z,55.89
2016-09-30T03:52:52.424Z,56.09
2016-09-30T03:53:18.072Z,55.89
2016-09-30T03:53:43.643Z,56.09
2016-09-30T03:54:09.283Z,55.99
2016-09-30T03:54:34.869Z,55.7
2016-09-30T03:55:00.443Z,56.09
2016-09-30T03:55:26.019Z,55.89
2016-09-30T03:55:51.589Z,55.79
2016-09-30T03:56:17.264Z,56.09
2016-09-30T03:56:42.854Z,55.89
2016-09-30T03:57:08.476Z,56.09
2016-09-30T03:57:34.132Z,56.18
2016-09-30T03:57:59.699Z,56.47
2016-09-30T03:58:25.267Z,56.09
2016-09-30T03:58:50.812Z,56.09
2016-09-30T03:59:16.429Z,55.89
2016-09-30T03:59:42.106Z,55.99
2016-09-30T04:00:07.665Z,55.89
2016-09-30T04:00:34.163Z,55.99
2016-09-30T04:00:59.731Z,56.18
2016-09-30T04:01:25.486Z,55.89
2016-09-30T04:01:51.122Z,55.89
2016-09-30T04:02:16.701Z,55.89
2016-09-30T04:02:42.353Z,55.89
2016-09-30T04:03:07.914Z,55.89
2016-09-30T04:03:33.543Z,55.89
2016-09-30T04:03:59.178Z,55.99
2016-09-30T04:04:24.731Z,55.99
2016-09-30T04:04:50.320Z,55.89
2016-09-30T04:05:15.860Z,55.89
2016-09-30T04:05:41.514Z,55.89
2016-09-30T04:06:07.140Z,56.09
2016-09-30T04:06:32.692Z,55.89
2016-09-30T04:06:58.273Z,55.99
2016-09-30T04:07:23.839Z,56.37
2016-09-30T04:07:49.502Z,55.89
2016-09-30T04:08:15.163Z,55.89
2016-09-30T04:08:40.609Z,55.99
2016-09-30T04:09:06.171Z,55.89
2016-09-30T04:09:31.762Z,55.99
2016-09-30T04:09:57.298Z,55.99
2016-09-30T04:10:22.847Z,56.09
2016-09-30T04:10:48.485Z,55.6
2016-09-30T04:11:14.064Z,55.89
2016-09-30T04:11:39.627Z,55.99
2016-09-30T04:12:05.297Z,56.09
2016-09-30T04:12:30.908Z,56.09
2016-09-30T04:12:56.519Z,55.99
2016-09-30T04:13:22.078Z,55.89
2016-09-30T04:13:47.713Z,56.37
2016-09-30T04:14:13.370Z,55.99
2016-09-30T04:14:38.922Z,55.89
2016-09-30T04:15:04.529Z,55.99
2016-09-30T04:15:30.109Z,55.89
2016-09-30T04:15:55.676Z,55.89
2016-09-30T04:16:21.323Z,55.99
2016-09-30T04:16:46.886Z,56.18
2016-09-30T04:17:12.498Z,56.09
2016-09-30T04:17:38.080Z,56.18
2016-09-30T04:18:03.632Z,56.09
2016-09-30T04:18:29.326Z,56.18
2016-09-30T04:18:54.906Z,55.99
2016-09-30T04:19:20.459Z,56.09
2016-09-30T04:19:46.033Z,56.18
2016-09-30T04:20:11.730Z,56.18
2016-09-30T04:20:37.365Z,56.09
2016-09-30T04:21:02.805Z,55.99
2016-09-30T04:21:28.431Z,56.18
2016-09-30T04:21:53.998Z,55.99
2016-09-30T04:22:19.659Z,55.99
2016-09-30T04:22:45.230Z,56.18
2016-09-30T04:23:10.870Z,56.09
2016-09-30T04:23:36.492Z,56.09
2016-09-30T04:24:02.072Z,56.09
2016-09-30T04:24:27.741Z,55.99
2016-09-30T04:25:36.050Z,56.27
2016-09-30T04:26:34.114Z,56.37
2016-09-30T04:26:59.726Z,56.18
2016-09-30T04:27:25.282Z,56.27
2016-09-30T04:27:50.867Z,56.37
2016-09-30T04:28:43.820Z,56.37
2016-09-30T04:29:09.375Z,56.37
2016-09-30T04:29:34.972Z,56.37
2016-09-30T04:31:42.051Z,56.47
2016-09-30T04:32:15.905Z,56.27
2016-09-30T04:32:41.554Z,56.27
2016-09-30T04:33:07.152Z,56.37
2016-09-30T04:34:20.950Z,56.37
2016-09-30T04:35:19.020Z,56.27
2016-09-30T04:35:44.665Z,56.57
2016-09-30T04:36:10.218Z,56.18
2016-09-30T04:36:35.779Z,56.18
2016-09-30T04:37:01.343Z,56.37
2016-09-30T04:37:27.030Z,56.18
2016-09-30T04:37:52.653Z,56.27
2016-09-30T04:38:18.220Z,56.27
2016-09-30T04:38:43.869Z,56.57
2016-09-30T04:39:09.437Z,56.27
2016-09-30T04:39:35.216Z,56.27
2016-09-30T04:40:00.778Z,56.47
2016-09-30T04:41:14.327Z,56.27
2016-09-30T04:41:39.887Z,56.18
2016-09-30T04:42:05.444Z,56.37
2016-09-30T04:42:31.036Z,56.95
2016-09-30T04:42:56.709Z,57.05
2016-09-30T04:43:22.310Z,57.05
2016-09-30T04:43:47.962Z,57.34
2016-09-30T04:44:13.508Z,57.24
2016-09-30T04:44:39.127Z,56.85
2016-09-30T04:45:04.733Z,57.21
2016-09-30T04:45:30.422Z,56.92
2016-09-30T04:45:56.089Z,57.21
2016-09-30T04:46:21.769Z,56.73
2016-09-30T04:46:47.355Z,57.21
2016-09-30T04:47:13.160Z,57.69
2016-09-30T04:47:38.783Z,57.72
2016-09-30T04:48:04.365Z,57.53
2016-09-30T04:48:30.046Z,57.6
2016-09-30T04:48:55.597Z,57.98
2016-09-30T04:49:21.352Z,57.89
2016-09-30T04:49:46.922Z,58.01
2016-09-30T04:50:12.499Z,58.2
2016-09-30T04:50:38.163Z,58.11
2016-09-30T04:51:03.749Z,58.3
2016-09-30T04:51:29.266Z,58.2
2016-09-30T04:51:54.984Z,58.69
2016-09-30T04:52:20.560Z,58.3
2016-09-30T04:52:46.863Z,58.78
2016-09-30T04:53:12.439Z,58.59
2016-09-30T04:53:38.163Z,58.49
2016-09-30T04:54:03.733Z,58.78
2016-09-30T04:54:29.299Z,58.49
2016-09-30T04:54:54.939Z,58.59
2016-09-30T04:55:20.492Z,58.4
2016-09-30T04:55:46.122Z,58.59
2016-09-30T04:56:11.672Z,58.49
2016-09-30T04:56:37.358Z,58.78
2016-09-30T04:57:02.950Z,58.3
2016-09-30T04:57:28.501Z,58.59
2016-09-30T04:57:54.148Z,58.4
2016-09-30T04:58:19.730Z,58.88
2016-09-30T04:58:45.433Z,58.88
2016-09-30T04:59:11.122Z,58.59
2016-09-30T05:00:14.461Z,58.69
2016-09-30T05:01:28.021Z,58.78
2016-09-30T05:01:53.601Z,58.59
2016-09-30T05:02:19.243Z,58.88
2016-09-30T05:02:44.811Z,58.49
2016-09-30T05:03:10.568Z,58.88
2016-09-30T05:03:36.182Z,58.69
2016-09-30T05:04:02.047Z,58.4
2016-09-30T05:04:27.600Z,58.69
2016-09-30T05:04:53.230Z,59.04
2016-09-30T05:05:18.801Z,58.59
2016-09-30T05:05:44.418Z,58.49
2016-09-30T05:06:10.100Z,58.69
2016-09-30T05:06:35.666Z,58.97
2016-09-30T05:07:01.340Z,58.4
2016-09-30T05:07:26.877Z,58.97
2016-09-30T05:07:52.543Z,58.69
2016-09-30T05:08:18.088Z,58.4
2016-09-30T05:08:43.661Z,58.69
2016-09-30T05:09:09.243Z,58.69
2016-09-30T05:09:34.821Z,58.69
2016-09-30T05:10:00.393Z,58.49
2016-09-30T05:10:25.970Z,58.69
2016-09-30T05:10:51.591Z,58.49
2016-09-30T05:11:17.176Z,58.3
2016-09-30T05:11:42.733Z,58.78
2016-09-30T05:12:08.294Z,58.78
2016-09-30T05:12:33.869Z,58.3
2016-09-30T05:12:59.477Z,58.11
2016-09-30T05:13:25.047Z,58.11
2016-09-30T05:13:50.625Z,57.82
2016-09-30T05:14:16.213Z,57.89
2016-09-30T05:14:41.901Z,57.92
2016-09-30T05:15:07.659Z,57.92
2016-09-30T05:15:33.309Z,57.92
2016-09-30T05:15:58.953Z,57.92
2016-09-30T05:16:24.505Z,58.3
2016-09-30T05:16:50.074Z,58.3
2016-09-30T05:17:15.889Z,58.01
2016-09-30T05:17:41.625Z,57.72
2016-09-30T05:18:07.320Z,57.92
2016-09-30T05:18:32.973Z,57.53
2016-09-30T05:18:58.661Z,57.82
2016-09-30T05:19:24.237Z,57.82
2016-09-30T05:19:49.789Z,57.62
2016-09-30T05:20:15.491Z,57.53
2016-09-30T05:20:41.078Z,57.72
2016-09-30T05:21:06.671Z,57.6
2016-09-30T05:21:32.268Z,58.01
2016-09-30T05:21:57.821Z,57.82
2016-09-30T05:22:23.460Z,57.92
2016-09-30T05:22:49.969Z,57.82
2016-09-30T05:23:15.663Z,57.98
2016-09-30T05:23:41.247Z,57.82
2016-09-30T05:24:06.863Z,57.62
2016-09-30T05:24:32.560Z,58.01
2016-09-30T05:24:58.153Z,57.92
2016-09-30T05:25:24.540Z,57.92
2016-09-30T05:25:50.171Z,57.72
2016-09-30T05:26:15.747Z,57.43
2016-09-30T05:26:41.342Z,57.53
2016-09-30T05:27:07.021Z,57.43
2016-09-30T05:27:32.588Z,57.62
2016-09-30T05:27:58.162Z,57.5
2016-09-30T05:28:23.811Z,57.53
2016-09-30T05:28:49.729Z,57.62
2016-09-30T05:29:15.337Z,57.72
2016-09-30T05:29:41.079Z,57.82
2016-09-30T05:31:37.557Z,57.82
2016-09-30T05:32:03.122Z,57.72
2016-09-30T05:32:28.774Z,57.62
2016-09-30T05:32:54.357Z,57.62
2016-09-30T05:33:19.937Z,57.53
2016-09-30T05:33:45.489Z,57.24
2016-09-30T05:34:11.037Z,57.24
2016-09-30T05:34:36.669Z,57.14
2016-09-30T05:35:02.215Z,57.05
2016-09-30T05:35:27.782Z,57.24
2016-09-30T05:35:53.333Z,57.14
2016-09-30T05:36:18.911Z,57.05
2016-09-30T05:36:44.556Z,57.14
2016-09-30T05:37:10.067Z,57.24
2016-09-30T05:37:35.705Z,57.14
2016-09-30T05:38:01.278Z,57.05
2016-09-30T05:38:26.941Z,57.05
2016-09-30T05:38:52.519Z,57.14
2016-09-30T05:39:18.094Z,57.14
2016-09-30T05:39:43.802Z,57.14
2016-09-30T05:40:09.349Z,57.14
2016-09-30T05:40:35.039Z,57.14
2016-09-30T05:41:00.636Z,57.14
2016-09-30T05:41:26.204Z,57.05
2016-09-30T05:41:51.937Z,56.95
2016-09-30T05:42:17.482Z,56.95
2016-09-30T05:42:43.232Z,57.05
2016-09-30T05:43:08.827Z,57.24
2016-09-30T05:43:34.384Z,57.14
2016-09-30T05:44:00.113Z,56.95
2016-09-30T05:44:25.696Z,57.24
2016-09-30T05:44:51.310Z,56.85
2016-09-30T05:45:16.931Z,57.14
2016-09-30T05:45:42.472Z,57.24
2016-09-30T05:46:08.053Z,57.24
2016-09-30T05:46:33.742Z,57.14
2016-09-30T05:47:36.906Z,57.24
2016-09-30T05:48:02.461Z,57.05
2016-09-30T05:48:28.071Z,57.24
2016-09-30T05:48:53.787Z,57.24
2016-09-30T05:49:19.252Z,57.14
2016-09-30T05:49:44.842Z,57.14
2016-09-30T05:50:10.404Z,57.14
2016-09-30T05:50:36.091Z,57.24
2016-09-30T05:51:01.654Z,57.14
2016-09-30T05:51:27.219Z,57.14
2016-09-30T05:51:52.773Z,56.66
2016-09-30T05:52:18.353Z,57.14
2016-09-30T05:52:44.022Z,56.66
2016-09-30T05:53:09.685Z,56.95
2016-09-30T05:53:35.298Z,57.05
2016-09-30T05:54:00.844Z,56.66
2016-09-30T05:54:26.425Z,56.76
2016-09-30T05:54:52.090Z,57.34
2016-09-30T05:55:17.665Z,57.34
2016-09-30T05:55:43.326Z,57.24
2016-09-30T05:56:08.925Z,56.85
2016-09-30T05:56:34.476Z,57.14
2016-09-30T05:57:00.025Z,57.34
2016-09-30T05:57:25.584Z,56.66
2016-09-30T05:57:51.249Z,57.14
2016-09-30T05:58:16.823Z,57.14
2016-09-30T05:58:42.362Z,57.05
2016-09-30T05:59:07.994Z,56.95
2016-09-30T05:59:33.546Z,57.05
2016-09-30T05:59:59.104Z,57.14
2016-09-30T06:00:24.679Z,57.05
2016-09-30T06:01:28.141Z,57.05
2016-09-30T06:01:53.697Z,57.05
2016-09-30T06:02:19.259Z,57.05
2016-09-30T06:02:44.819Z,56.66
2016-09-30T06:03:37.804Z,56.66
2016-09-30T06:04:03.357Z,56.57
2016-09-30T06:04:28.903Z,56.66
2016-09-30T06:04:54.501Z,56.57
2016-09-30T06:05:20.051Z,56.57
2016-09-30T06:05:45.640Z,56.76
2016-09-30T06:06:11.208Z,56.95
2016-09-30T06:06:36.785Z,56.66
2016-09-30T06:07:02.371Z,56.66
2016-09-30T06:07:27.938Z,56.66
2016-09-30T06:07:53.485Z,56.66
2016-09-30T06:08:19.097Z,56.66
2016-09-30T06:08:44.606Z,56.85
2016-09-30T06:09:10.191Z,56.95
2016-09-30T06:09:35.775Z,56.95
2016-09-30T06:10:01.339Z,56.57
2016-09-30T06:10:26.897Z,56.66
2016-09-30T06:10:52.475Z,56.76
2016-09-30T06:11:18.155Z,56.85
2016-09-30T06:11:43.700Z,56.85
2016-09-30T06:12:09.278Z,57.05
2016-09-30T06:12:34.828Z,56.85
2016-09-30T06:13:00.488Z,56.95
2016-09-30T06:13:26.059Z,56.85
2016-09-30T06:13:51.709Z,56.95
2016-09-30T06:14:44.732Z,56.85
2016-09-30T06:15:10.286Z,56.85
2016-09-30T06:15:35.853Z,57.05
2016-09-30T06:16:01.473Z,56.85
2016-09-30T06:16:27.071Z,56.66
2016-09-30T06:16:52.632Z,57.05
2016-09-30T06:17:18.193Z,56.76
2016-09-30T06:17:43.764Z,57.05
2016-09-30T06:18:09.328Z,57.05
2016-09-30T06:18:34.885Z,56.66
2016-09-30T06:19:00.451Z,57.05
2016-09-30T06:19:26.019Z,56.47
2016-09-30T06:19:51.654Z,56.57
2016-09-30T06:20:17.232Z,56.66
2016-09-30T06:20:42.766Z,56.37
2016-09-30T06:21:08.331Z,56.47
2016-09-30T06:21:33.988Z,56.27
2016-09-30T06:21:59.542Z,56.47
2016-09-30T06:22:25.091Z,56.47
2016-09-30T06:22:50.675Z,56.18
2016-09-30T06:23:16.207Z,56.37
2016-09-30T06:23:41.761Z,56.18
2016-09-30T06:24:07.327Z,56.27
2016-09-30T06:24:32.875Z,56.18
2016-09-30T06:24:58.406Z,56.18
2016-09-30T06:25:51.427Z,56.27
2016-09-30T06:26:16.998Z,56.37
2016-09-30T06:26:42.603Z,56.27
2016-09-30T06:27:08.156Z,56.37
2016-09-30T06:27:33.714Z,56.47
2016-09-30T06:27:59.277Z,55.99
2016-09-30T06:28:24.834Z,56.27
2016-09-30T06:28:50.398Z,56.27
2016-09-30T06:29:15.949Z,56.27
2016-09-30T06:29:41.500Z,56.18
2016-09-30T06:30:07.045Z,56.27
2016-09-30T06:30:32.589Z,56.27
2016-09-30T06:30:58.169Z,56.18
2016-09-30T06:31:23.729Z,56.09
2016-09-30T06:31:49.277Z,56.09
2016-09-30T06:32:14.823Z,56.18
2016-09-30T06:32:40.366Z,56.27
2016-09-30T06:33:05.923Z,56.27
2016-09-30T06:33:31.517Z,56.27
2016-09-30T06:33:57.077Z,56.18
2016-09-30T06:34:22.653Z,56.18
2016-09-30T06:34:48.203Z,55.99
2016-09-30T06:35:13.753Z,56.09
2016-09-30T06:35:39.287Z,56.18
2016-09-30T06:36:04.826Z,56.18
2016-09-30T06:36:30.369Z,56.09
2016-09-30T06:36:55.915Z,55.99
2016-09-30T06:37:21.477Z,56.09
2016-09-30T06:37:47.031Z,56.09
2016-09-30T06:38:12.564Z,55.89
2016-09-30T06:38:38.119Z,55.89
2016-09-30T06:39:03.651Z,55.99
2016-09-30T06:39:29.245Z,55.99
2016-09-30T06:39:54.796Z,55.99
2016-09-30T06:40:20.325Z,55.99
2016-09-30T06:40:45.853Z,55.89
2016-09-30T06:41:11.408Z,55.99
2016-09-30T06:41:36.947Z,55.99
2016-09-30T06:42:02.502Z,55.99
2016-09-30T06:42:28.027Z,55.99
2016-09-30T06:42:53.618Z,56.27
2016-09-30T06:43:19.200Z,55.89
2016-09-30T06:43:44.751Z,55.7
2016-09-30T06:44:10.299Z,55.99
2016-09-30T06:44:35.859Z,55.99
2016-09-30T06:45:01.392Z,55.89
2016-09-30T06:45:26.954Z,56.09
2016-09-30T06:45:52.539Z,55.89
2016-09-30T06:46:18.097Z,56.09
2016-09-30T06:46:43.629Z,56.09
2016-09-30T06:47:09.182Z,55.99
2016-09-30T06:47:34.743Z,55.89
2016-09-30T06:48:00.295Z,56.09
2016-09-30T06:48:25.848Z,56.09
2016-09-30T06:48:51.380Z,55.89
2016-09-30T06:49:16.946Z,55.6
2016-09-30T06:49:42.488Z,55.89
2016-09-30T06:50:08.079Z,55.7
2016-09-30T06:50:33.639Z,55.7
2016-09-30T06:50:59.198Z,55.63
2016-09-30T06:51:24.802Z,56.09
2016-09-30T06:51:50.414Z,56.09
2016-09-30T06:52:15.960Z,56.09
2016-09-30T06:52:41.514Z,55.79
2016-09-30T06:53:07.066Z,55.89
2016-09-30T06:53:32.622Z,55.79
2016-09-30T06:53:58.179Z,55.99
2016-09-30T06:54:23.753Z,56.18
2016-09-30T06:54:49.301Z,56.09
2016-09-30T06:55:14.859Z,55.99
2016-09-30T06:55:40.424Z,55.99
2016-09-30T06:56:06.101Z,56.09
2016-09-30T06:56:31.671Z,55.79
2016-09-30T06:56:57.253Z,55.89
2016-09-30T06:57:22.862Z,55.79
2016-09-30T06:57:48.441Z,55.79
2016-09-30T06:58:14.033Z,55.89
2016-09-30T06:58:39.666Z,56.27
2016-09-30T06:59:05.222Z,55.82
2016-09-30T06:59:30.929Z,55.79
2016-09-30T07:00:44.355Z,55.89
2016-09-30T07:01:09.918Z,55.89
2016-09-30T07:01:35.497Z,56.37
2016-09-30T07:02:01.078Z,56.27
2016-09-30T07:02:26.692Z,56.57
2016-09-30T07:02:52.266Z,56.47
2016-09-30T07:03:17.827Z,57.14
2016-09-30T07:03:43.394Z,56.27
2016-09-30T07:04:08.985Z,56.37
2016-09-30T07:04:34.554Z,57.05
2016-09-30T07:05:00.134Z,57.34
2016-09-30T07:05:25.699Z,56.95
2016-09-30T07:05:51.273Z,57.07
2016-09-30T07:06:16.851Z,56.47
2016-09-30T07:06:42.421Z,56.95
2016-09-30T07:07:08.006Z,56.98
2016-09-30T07:07:33.568Z,56.57
2016-09-30T07:07:59.241Z,56.49
2016-09-30T07:08:24.799Z,56.3
2016-09-30T07:08:50.376Z,56.37
2016-09-30T07:09:16.069Z,56.27
2016-09-30T07:09:41.635Z,56.21
2016-09-30T07:10:07.194Z,56.21
2016-09-30T07:10:32.864Z,56.11
2016-09-30T07:10:58.427Z,56.11
2016-09-30T07:11:24.016Z,56.01
2016-09-30T07:11:49.635Z,56.01
2016-09-30T07:12:15.241Z,55.92
2016-09-30T07:12:40.791Z,55.92
2016-09-30T07:13:06.350Z,55.73
2016-09-30T07:13:32.091Z,55.92
2016-09-30T07:13:57.614Z,56.11
2016-09-30T07:14:23.175Z,55.92
2016-09-30T07:14:48.739Z,55.92
2016-09-30T07:15:14.319Z,55.92
2016-09-30T07:15:39.888Z,55.73
2016-09-30T07:16:05.454Z,56.01
2016-09-30T07:16:31.012Z,56.01
2016-09-30T07:16:56.643Z,55.92
2016-09-30T07:17:22.253Z,55.73
2016-09-30T07:17:47.819Z,55.63
2016-09-30T07:18:13.391Z,55.73
2016-09-30T07:18:38.944Z,56.11
2016-09-30T07:19:04.532Z,56.11
2016-09-30T07:19:30.080Z,56.01
2016-09-30T07:19:55.675Z,55.92
2016-09-30T07:20:21.230Z,56.11
2016-09-30T07:20:46.814Z,56.01
2016-09-30T07:21:44.922Z,56.11
2016-09-30T07:22:10.675Z,56.11
2016-09-30T07:22:36.292Z,56.11
2016-09-30T07:23:01.865Z,56.11
2016-09-30T07:23:27.413Z,55.82
2016-09-30T07:23:52.970Z,55.82
2016-09-30T07:24:18.522Z,55.92
2016-09-30T07:24:44.068Z,55.82
2016-09-30T07:25:09.673Z,56.01
2016-09-30T07:25:35.301Z,56.11
2016-09-30T07:26:00.779Z,55.92
2016-09-30T07:26:26.337Z,55.82
2016-09-30T07:26:51.898Z,55.92
2016-09-30T07:27:17.454Z,55.92
2016-09-30T07:27:43.018Z,56.01
2016-09-30T07:28:08.684Z,55.82
2016-09-30T07:28:34.237Z,56.01
2016-09-30T07:28:59.800Z,55.92
2016-09-30T07:29:25.357Z,55.92
2016-09-30T07:29:50.900Z,55.92
2016-09-30T07:30:16.467Z,55.82
2016-09-30T07:30:42.035Z,55.92
2016-09-30T07:31:07.589Z,55.73
2016-09-30T07:31:33.170Z,56.11
2016-09-30T07:31:58.789Z,56.11
2016-09-30T07:32:24.396Z,56.11
2016-09-30T07:32:49.913Z,55.92
2016-09-30T07:33:15.707Z,55.92
2016-09-30T07:33:41.126Z,56.11
2016-09-30T07:34:06.692Z,56.11
2016-09-30T07:34:32.233Z,56.11
2016-09-30T07:34:57.796Z,55.54
2016-09-30T07:35:23.335Z,56.01
2016-09-30T07:35:48.889Z,56.01
2016-09-30T07:36:14.563Z,55.63
2016-09-30T07:36:40.133Z,55.54
2016-09-30T07:37:05.696Z,55.63
2016-09-30T07:37:31.232Z,55.44
2016-09-30T07:37:56.812Z,55.44
2016-09-30T07:38:22.376Z,55.24
2016-09-30T07:38:47.931Z,55.24
2016-09-30T07:39:13.476Z,55.24
2016-09-30T07:39:39.107Z,55.73
2016-09-30T07:40:04.692Z,55.73
2016-09-30T07:40:30.254Z,55.15
2016-09-30T07:40:55.832Z,55.63
2016-09-30T07:41:21.379Z,55.44
2016-09-30T07:41:46.946Z,55.44
2016-09-30T07:42:45.066Z,55.54
2016-09-30T07:43:10.623Z,55.54
2016-09-30T07:43:36.187Z,55.63
2016-09-30T07:44:01.763Z,55.54
2016-09-30T07:44:27.347Z,55.15
2016-09-30T07:44:52.908Z,55.44
2016-09-30T07:45:18.466Z,55.44
2016-09-30T07:45:44.124Z,55.54
2016-09-30T07:46:09.697Z,55.44
2016-09-30T07:46:35.261Z,55.34
2016-09-30T07:47:00.941Z,55.24
2016-09-30T07:47:26.508Z,55.34
2016-09-30T07:47:52.107Z,55.34
2016-09-30T07:48:17.677Z,55.24
2016-09-30T07:48:43.245Z,55.54
2016-09-30T07:49:08.907Z,55.24
2016-09-30T07:49:34.386Z,55.44
2016-09-30T07:49:59.965Z,54.96
2016-09-30T07:50:25.517Z,55.44
2016-09-30T07:50:51.119Z,55.15
2016-09-30T07:51:16.769Z,55.24
2016-09-30T07:51:42.313Z,55.05
2016-09-30T07:52:07.971Z,55.15
2016-09-30T07:52:33.557Z,54.96
2016-09-30T07:52:59.115Z,55.34
2016-09-30T07:53:24.676Z,55.15
2016-09-30T07:53:50.237Z,55.15
2016-09-30T07:54:15.819Z,54.96
2016-09-30T07:54:41.375Z,55.34
2016-09-30T07:55:06.936Z,55.34
2016-09-30T07:55:32.547Z,55.24
2016-09-30T07:56:40.868Z,55.15
2016-09-30T07:57:06.440Z,55.15
2016-09-30T07:57:31.988Z,54.96
2016-09-30T07:57:57.546Z,54.96
2016-09-30T07:58:23.098Z,55.05
2016-09-30T07:58:48.697Z,55.24
2016-09-30T07:59:14.257Z,55.34
2016-09-30T07:59:39.840Z,55.18
2016-09-30T08:00:48.130Z,55.15
2016-09-30T08:01:13.708Z,55.24
2016-09-30T08:01:39.295Z,55.15
2016-09-30T08:02:04.846Z,55.15
2016-09-30T08:02:30.408Z,55.15
2016-09-30T08:02:56.058Z,55.36
2016-09-30T08:03:21.644Z,55.24
2016-09-30T08:03:47.210Z,55.34
2016-09-30T08:04:12.800Z,55.34
2016-09-30T08:04:38.400Z,55.15
2016-09-30T08:05:03.955Z,55.15
2016-09-30T08:05:29.524Z,55.15
2016-09-30T08:05:55.126Z,55.24
2016-09-30T08:08:29.838Z,55.15
2016-09-30T08:08:55.398Z,55.15
2016-09-30T08:09:20.959Z,55.15
2016-09-30T08:09:46.532Z,55.15
2016-09-30T08:10:12.110Z,55.44
2016-09-30T08:10:37.663Z,55.34
2016-09-30T08:11:03.251Z,55.24
2016-09-30T08:11:28.809Z,55.34
2016-09-30T08:11:54.371Z,55.34
2016-09-30T08:12:19.948Z,55.36
2016-09-30T08:12:45.478Z,55.54
2016-09-30T08:13:11.068Z,55.44
2016-09-30T08:13:36.807Z,55.15
2016-09-30T08:14:02.376Z,55.15
2016-09-30T08:14:27.964Z,55.54
2016-09-30T08:15:41.439Z,55.46
2016-09-30T08:16:06.997Z,55.15
2016-09-30T08:16:32.557Z,55.18
2016-09-30T08:17:45.988Z,55.05
2016-09-30T08:18:11.553Z,55.08
2016-09-30T08:18:37.141Z,55.24
2016-09-30T08:19:02.693Z,55.27
2016-09-30T08:19:28.275Z,55.24
2016-09-30T08:19:53.827Z,55.15
2016-09-30T08:20:19.391Z,55.24
2016-09-30T08:20:44.947Z,55.15
2016-09-30T08:21:10.514Z,55.24
2016-09-30T08:21:36.110Z,55.08
2016-09-30T08:22:01.666Z,55.08
2016-09-30T08:22:27.354Z,55.08
2016-09-30T08:22:52.914Z,55.08
2016-09-30T08:23:18.528Z,55.36
2016-09-30T08:23:44.087Z,55.15
2016-09-30T08:24:09.659Z,55.08
2016-09-30T08:24:35.311Z,55.15
2016-09-30T08:25:00.875Z,55.05
2016-09-30T08:25:26.495Z,55.18
2016-09-30T08:25:52.061Z,55.36
2016-09-30T08:26:17.646Z,54.96
2016-09-30T08:26:43.187Z,54.86
2016-09-30T08:27:08.757Z,54.79
2016-09-30T08:27:34.325Z,54.79
2016-09-30T08:27:59.894Z,54.88
2016-09-30T08:28:25.513Z,54.69
2016-09-30T08:28:51.065Z,54.69
2016-09-30T08:29:16.615Z,54.69
2016-09-30T08:29:42.258Z,54.69
2016-09-30T08:30:07.787Z,54.79
2016-09-30T08:30:33.344Z,54.88
2016-09-30T08:30:58.898Z,54.98
2016-09-30T08:31:24.489Z,54.79
2016-09-30T08:31:50.047Z,54.6
2016-09-30T08:32:15.610Z,54.79
2016-09-30T08:32:41.165Z,54.69
2016-09-30T08:33:06.947Z,54.69
2016-09-30T08:33:32.556Z,54.98
2016-09-30T08:33:58.125Z,54.5
2016-09-30T08:34:23.700Z,54.5
2016-09-30T08:34:49.251Z,54.5
2016-09-30T08:35:14.818Z,54.4
2016-09-30T08:35:40.386Z,54.4
2016-09-30T08:36:05.993Z,54.4
2016-09-30T08:36:31.568Z,54.5
2016-09-30T08:36:57.132Z,54.5
2016-09-30T08:37:22.674Z,54.5
2016-09-30T08:37:48.248Z,54.31
2016-09-30T08:38:13.843Z,54.69
2016-09-30T08:38:39.418Z,54.6
2016-09-30T08:39:04.994Z,54.69
2016-09-30T08:39:30.538Z,54.5
2016-09-30T08:39:56.088Z,54.6
2016-09-30T08:40:21.689Z,54.69
2016-09-30T08:40:47.269Z,54.6
2016-09-30T08:41:12.821Z,54.5
2016-09-30T08:41:38.447Z,54.5
2016-09-30T08:42:04.063Z,54.69
2016-09-30T08:42:29.629Z,54.4
2016-09-30T08:42:55.214Z,54.79
2016-09-30T08:43:20.829Z,54.6
2016-09-30T08:43:46.420Z,54.6
2016-09-30T08:44:11.999Z,54.6
2016-09-30T08:44:37.557Z,54.6
2016-09-30T08:45:03.175Z,54.6
2016-09-30T08:45:28.813Z,54.6
2016-09-30T08:45:54.377Z,54.69
2016-09-30T08:46:20.057Z,54.6
2016-09-30T08:46:45.708Z,54.4
2016-09-30T08:47:11.267Z,54.69
2016-09-30T08:48:19.589Z,54.21
2016-09-30T08:48:45.151Z,54.11
2016-09-30T08:49:10.718Z,54.21
2016-09-30T08:49:36.288Z,54.11
2016-09-30T08:50:01.853Z,53.92
2016-09-30T08:50:27.413Z,53.92
2016-09-30T08:50:52.997Z,54.21
2016-09-30T08:51:19.799Z,54.21
2016-09-30T08:51:44.984Z,54.02
2016-09-30T08:52:10.528Z,54.21
2016-09-30T08:52:36.106Z,54.4
2016-09-30T08:53:01.663Z,54.4
2016-09-30T08:53:27.213Z,54.21
2016-09-30T08:53:52.752Z,54.11